createdAt,value
2023-04-04T00:01:13.388Z,59.75
2023-04-04T00:03:59.483Z,59.10
2023-04-04T00:06:45.908Z,60.05
2023-04-04T00:09:32.456Z,60.50
2023-04-04T00:12:18.382Z,60.25
2023-04-04T00:15:04.784Z,60.04
2023-04-04T00:17:50.600Z,59.85
2023-04-04T00:20:36.678Z,60.32
2023-04-04T00:23:22.979Z,59.84
2023-04-04T00:26:08.819Z,60.66
2023-04-04T00:28:56.239Z,60.38
2023-04-04T00:31:42.120Z,59.81
2023-04-04T00:34:27.849Z,59.93
2023-04-04T00:37:14.025Z,60.20
2023-04-04T00:39:59.952Z,60.58
2023-04-04T00:43:14.251Z,61.11
2023-04-04T00:50:38.817Z,61.42
2023-04-04T00:53:24.635Z,60.36
2023-04-04T00:56:10.438Z,60.36
2023-04-04T00:59:01.944Z,60.21
2023-04-04T01:01:47.737Z,60.68
2023-04-04T01:05:08.821Z,62.12
2023-04-04T01:07:55.368Z,60.59
2023-04-04T01:10:41.761Z,61.33
2023-04-04T01:13:34.544Z,60.31
2023-04-04T01:16:43.513Z,60.72
2023-04-04T01:19:36.973Z,60.86
2023-04-04T01:22:41.112Z,61.24
2023-04-04T01:25:32.672Z,61.47
2023-04-04T01:29:00.873Z,61.35
2023-04-04T01:31:51.693Z,61.17
2023-04-04T01:44:02.986Z,62.55
2023-04-04T01:46:54.521Z,62.88
2023-04-04T01:49:41.079Z,62.17
2023-04-04T01:52:28.307Z,62.30
2023-04-04T01:55:54.468Z,63.73
2023-04-04T01:59:18.503Z,65.29
2023-04-04T02:02:05.982Z,64.77
2023-04-04T02:04:52.417Z,64.51
2023-04-04T02:07:38.615Z,64.48
2023-04-04T02:10:32.968Z,64.95
2023-04-04T02:13:18.610Z,65.18
2023-04-04T02:16:06.102Z,65.01
2023-04-04T02:18:53.108Z,65.22
2023-04-04T02:21:39.056Z,64.71
2023-04-04T02:24:24.850Z,64.83
2023-04-04T02:27:10.780Z,65.03
2023-04-04T02:29:56.881Z,65.71
2023-04-04T02:32:43.185Z,65.51
2023-04-04T02:35:33.370Z,65.48
2023-04-04T02:38:19.144Z,65.62
2023-04-04T02:41:06.597Z,65.62
2023-04-04T02:43:52.484Z,65.89
2023-04-04T02:46:38.442Z,66.38
2023-04-04T02:49:29.678Z,66.18
2023-04-04T02:52:17.219Z,66.67
2023-04-04T02:55:07.157Z,66.46
2023-04-04T02:57:56.108Z,67.34
2023-04-04T03:00:42.052Z,67.08
2023-04-04T03:03:28.432Z,67.16
2023-04-04T03:06:15.614Z,67.15
2023-04-04T03:09:02.428Z,66.53
2023-04-04T03:11:48.462Z,67.12
2023-04-04T03:14:34.396Z,66.79
2023-04-04T03:17:20.733Z,67.01
2023-04-04T03:20:06.832Z,67.19
2023-04-04T03:22:52.892Z,67.87
2023-04-04T03:25:38.991Z,67.27
2023-04-04T03:28:26.468Z,67.62
2023-04-04T03:31:12.442Z,68.17
2023-04-04T03:34:00.942Z,68.05
2023-04-04T03:36:47.007Z,68.35
2023-04-04T03:39:33.027Z,67.42
2023-04-04T03:42:18.578Z,68.10
2023-04-04T03:45:04.662Z,67.84
2023-04-04T03:47:52.868Z,67.67
2023-04-04T03:50:39.007Z,67.83
2023-04-04T03:53:25.980Z,67.51
2023-04-04T03:56:11.988Z,67.71
2023-04-04T03:58:57.675Z,67.58
2023-04-04T04:01:43.454Z,67.86
2023-04-04T04:04:29.426Z,67.88
2023-04-04T04:07:15.502Z,67.54
2023-04-04T04:10:01.675Z,67.92
2023-04-04T04:12:47.467Z,68.26
2023-04-04T04:15:34.097Z,67.97
2023-04-04T04:18:23.004Z,67.96
2023-04-04T04:21:11.287Z,67.92
2023-04-04T04:24:00.486Z,67.87
2023-04-04T04:26:47.376Z,68.31
2023-04-04T04:29:35.061Z,68.09
2023-04-04T04:32:21.116Z,68.39
2023-04-04T04:35:10.830Z,68.35
2023-04-04T04:37:57.704Z,68.10
2023-04-04T04:40:44.202Z,68.02
2023-04-04T04:43:37.312Z,67.88
2023-04-04T04:46:23.053Z,67.99
2023-04-04T04:49:09.274Z,67.75
2023-04-04T04:51:55.651Z,68.03
2023-04-04T04:54:43.833Z,68.38
2023-04-04T04:57:29.804Z,67.77
2023-04-04T05:00:20.490Z,67.77
2023-04-04T05:03:07.502Z,68.36
2023-04-04T05:05:58.374Z,68.39
2023-04-04T05:08:44.397Z,68.37
2023-04-04T05:11:48.889Z,68.61
2023-04-04T05:14:38.409Z,69.01
2023-04-04T05:17:25.197Z,68.89
2023-04-04T05:20:14.827Z,68.85
2023-04-04T05:23:03.877Z,68.51
2023-04-04T05:25:55.525Z,68.68
2023-04-04T05:28:45.055Z,69.02
2023-04-04T05:31:31.232Z,68.21
2023-04-04T05:34:19.857Z,68.72
2023-04-04T05:37:08.198Z,68.68
2023-04-04T05:39:55.268Z,68.71
2023-04-04T05:42:42.740Z,68.87
2023-04-04T05:45:29.364Z,68.30
2023-04-04T05:48:32.322Z,69.09
2023-04-04T05:51:19.344Z,69.11
2023-04-04T05:54:18.062Z,68.66
2023-04-04T05:57:04.433Z,68.59
2023-04-04T05:59:59.867Z,68.48
2023-04-04T06:02:45.998Z,68.86
2023-04-04T06:05:37.152Z,68.47
2023-04-04T06:08:23.870Z,68.52
2023-04-04T06:11:09.974Z,69.22
2023-04-04T06:13:56.664Z,69.32
2023-04-04T06:16:43.989Z,68.42
2023-04-04T06:19:29.953Z,68.92
2023-04-04T06:22:17.956Z,69.16
2023-04-04T06:25:10.466Z,69.21
2023-04-04T06:27:59.430Z,69.41
2023-04-04T06:30:45.433Z,69.49
2023-04-04T06:33:33.782Z,69.53
2023-04-04T06:36:20.700Z,68.59
2023-04-04T06:39:07.359Z,68.09
2023-04-04T06:41:53.370Z,68.35
2023-04-04T06:44:45.278Z,68.88
2023-04-04T06:47:32.530Z,68.86
2023-04-04T06:50:22.489Z,68.08
2023-04-04T06:53:09.552Z,68.81
2023-04-04T06:56:01.608Z,68.46
2023-04-04T06:58:47.910Z,68.70
2023-04-04T07:01:34.323Z,68.35
2023-04-04T07:04:21.676Z,67.87
2023-04-04T07:07:07.649Z,68.25
2023-04-04T07:09:53.323Z,67.38
2023-04-04T07:12:38.997Z,67.66
2023-04-04T07:15:24.785Z,67.71
2023-04-04T07:18:13.301Z,66.70
2023-04-04T07:20:59.545Z,67.73
2023-04-04T07:23:45.255Z,67.53
2023-04-04T07:26:30.828Z,68.32
2023-04-04T07:29:16.562Z,68.19
2023-04-04T07:32:02.336Z,68.12
2023-04-04T07:34:49.635Z,66.96
2023-04-04T07:37:39.919Z,67.50
2023-04-04T07:40:26.318Z,67.28
2023-04-04T07:43:12.185Z,67.40
2023-04-04T07:46:01.908Z,67.12
2023-04-04T07:48:48.329Z,68.31
2023-04-04T07:51:35.552Z,66.94
2023-04-04T07:54:22.296Z,67.60
2023-04-04T07:57:10.009Z,67.77
2023-04-04T07:59:56.128Z,67.51
2023-04-04T08:02:43.963Z,68.47
2023-04-04T08:05:30.449Z,67.75
2023-04-04T08:08:16.568Z,68.16
2023-04-04T08:11:02.569Z,67.60
2023-04-04T08:13:48.606Z,67.57
2023-04-04T08:16:34.169Z,68.36
2023-04-04T08:19:20.197Z,68.26
2023-04-04T08:22:06.209Z,69.01
2023-04-04T08:24:52.305Z,67.60
2023-04-04T08:27:43.962Z,68.41
2023-04-04T08:30:30.070Z,69.48
2023-04-04T08:33:16.347Z,69.04
2023-04-04T08:36:02.173Z,68.49
2023-04-04T08:38:48.371Z,67.66
2023-04-04T08:41:35.876Z,68.65
2023-04-04T08:44:22.869Z,69.01
2023-04-04T08:47:10.823Z,68.08
2023-04-04T08:49:59.982Z,68.87
2023-04-04T08:52:46.748Z,68.88
2023-04-04T08:55:32.797Z,68.93
2023-04-04T08:58:19.167Z,68.10
2023-04-04T09:01:06.359Z,67.83
2023-04-04T09:03:53.500Z,67.66
2023-04-04T09:06:39.434Z,68.83
2023-04-04T09:09:25.472Z,68.47
2023-04-04T09:12:12.413Z,67.74
2023-04-04T09:14:59.639Z,66.27
2023-04-04T09:17:45.903Z,67.74
2023-04-04T09:20:48.727Z,67.96
2023-04-04T09:23:34.345Z,66.58
2023-04-04T09:26:19.981Z,67.15
2023-04-04T09:29:08.708Z,67.96
2023-04-04T09:31:54.402Z,68.14
2023-04-04T09:34:41.319Z,68.39
2023-04-04T09:37:27.528Z,69.47
2023-04-04T09:40:14.167Z,69.07
2023-04-04T09:43:01.245Z,67.34
2023-04-04T09:45:47.692Z,68.70
2023-04-04T09:48:34.981Z,68.55
2023-04-04T09:51:20.624Z,68.03
2023-04-04T09:54:10.858Z,67.89
2023-04-04T09:56:59.285Z,69.08
2023-04-04T09:59:46.723Z,69.08
2023-04-04T10:02:32.892Z,69.70
2023-04-04T10:05:20.230Z,68.91
2023-04-04T10:08:21.406Z,69.14
2023-04-04T10:11:12.084Z,68.83
2023-04-04T10:13:59.702Z,69.37
2023-04-04T10:16:46.020Z,69.74
2023-04-04T10:19:32.017Z,68.54
2023-04-04T10:22:18.007Z,67.82
2023-04-04T10:25:07.291Z,69.05
2023-04-04T10:27:53.004Z,68.27
2023-04-04T10:30:55.721Z,68.01
2023-04-04T10:34:02.178Z,66.15
2023-04-04T10:36:58.950Z,67.80
2023-04-04T10:39:52.378Z,67.88
2023-04-04T10:42:47.254Z,67.66
2023-04-04T10:45:35.413Z,67.85
2023-04-04T10:48:23.015Z,68.21
2023-04-04T10:51:11.783Z,67.72
2023-04-04T10:53:58.272Z,68.92
2023-04-04T10:56:44.313Z,67.25
2023-04-04T10:59:30.307Z,68.87
2023-04-04T11:02:18.320Z,68.67
2023-04-04T11:05:19.109Z,70.23
2023-04-04T11:08:09.144Z,68.19
2023-04-04T11:10:57.456Z,66.37
2023-04-04T11:14:01.760Z,69.19
2023-04-04T11:16:47.597Z,70.39
2023-04-04T11:19:33.456Z,70.73
2023-04-04T11:22:22.491Z,71.15
2023-04-04T11:25:27.483Z,70.31
2023-04-04T11:28:15.408Z,70.45
2023-04-04T11:31:20.519Z,70.58
2023-04-04T11:34:13.757Z,70.38
2023-04-04T11:37:17.738Z,71.06
2023-04-04T11:40:14.035Z,69.95
2023-04-04T11:43:03.575Z,70.82
2023-04-04T11:45:49.439Z,70.73
2023-04-04T11:48:35.159Z,70.72
2023-04-04T11:51:20.878Z,70.70
2023-04-04T11:54:17.491Z,70.58
2023-04-04T11:57:03.955Z,71.15
2023-04-04T11:59:51.544Z,71.60
2023-04-04T12:02:37.924Z,70.11
2023-04-04T12:05:26.790Z,71.03
2023-04-04T12:08:13.631Z,71.03
2023-04-04T12:11:04.754Z,70.46
2023-04-04T12:13:50.880Z,71.30
2023-04-04T12:16:38.211Z,70.71
2023-04-04T12:19:24.784Z,70.26
2023-04-04T12:22:10.911Z,71.10
2023-04-04T12:24:58.995Z,70.13
2023-04-04T12:27:45.182Z,71.81
2023-04-04T12:30:31.207Z,69.72
2023-04-04T12:33:17.379Z,71.00
2023-04-04T12:36:09.556Z,69.09
2023-04-04T12:39:00.491Z,67.52
2023-04-04T12:42:02.653Z,67.19
2023-04-04T12:44:52.185Z,67.44
2023-04-04T12:47:38.049Z,66.36
2023-04-04T12:50:26.641Z,68.07
2023-04-04T12:53:27.328Z,66.84
2023-04-04T12:56:13.549Z,67.05
2023-04-04T12:59:04.085Z,68.33
2023-04-04T13:01:49.863Z,68.61
2023-04-04T13:04:35.903Z,66.59
2023-04-04T13:07:27.616Z,68.27
2023-04-04T13:10:16.486Z,68.50
2023-04-04T13:13:03.713Z,68.22
2023-04-04T13:15:53.113Z,67.80
2023-04-04T13:18:42.464Z,67.95
2023-04-04T13:21:28.869Z,66.83
2023-04-04T13:24:14.905Z,65.09
2023-04-04T13:27:01.302Z,65.47
2023-04-04T13:29:47.007Z,63.74
2023-04-04T13:32:32.967Z,65.69
2023-04-04T13:35:19.347Z,68.27
2023-04-04T13:38:05.036Z,66.02
2023-04-04T13:40:50.853Z,67.08
2023-04-04T13:43:36.799Z,67.51
2023-04-04T13:46:23.034Z,67.49
2023-04-04T13:49:11.026Z,68.62
2023-04-04T13:51:56.733Z,66.66
2023-04-04T13:54:42.379Z,66.21
2023-04-04T13:57:28.884Z,66.80
2023-04-04T14:00:15.353Z,66.49
2023-04-04T14:03:01.540Z,66.14
2023-04-04T14:05:47.726Z,68.81
2023-04-04T14:08:34.938Z,68.66
2023-04-04T14:11:21.023Z,67.89
2023-04-04T14:14:06.767Z,68.09
2023-04-04T14:16:52.914Z,68.18
2023-04-04T14:19:39.795Z,67.55
2023-04-04T14:22:25.714Z,69.21
2023-04-04T14:25:11.630Z,68.49
2023-04-04T14:27:57.572Z,68.97
2023-04-04T14:30:43.408Z,68.49
2023-04-04T14:33:29.191Z,68.77
2023-04-04T14:36:15.618Z,67.98
2023-04-04T14:39:01.522Z,67.57
2023-04-04T14:41:47.433Z,69.64
2023-04-04T14:44:33.795Z,68.81
2023-04-04T14:47:19.446Z,68.82
2023-04-04T14:50:05.701Z,69.14
2023-04-04T14:52:53.005Z,69.27
2023-04-04T14:55:39.329Z,68.59
2023-04-04T14:58:25.567Z,71.03
2023-04-04T15:01:11.111Z,68.71
2023-04-04T15:03:57.334Z,66.46
2023-04-04T15:06:43.674Z,66.08
2023-04-04T15:09:30.749Z,67.37
2023-04-04T15:12:17.016Z,66.95
2023-04-04T15:15:03.017Z,65.75
2023-04-04T15:17:49.379Z,68.07
2023-04-04T15:20:40.185Z,67.34
2023-04-04T15:23:26.574Z,67.71
2023-04-04T15:26:12.743Z,69.51
2023-04-04T15:28:58.890Z,69.84
2023-04-04T15:31:44.854Z,67.70
2023-04-04T15:34:31.270Z,69.00
2023-04-04T15:37:17.584Z,67.65
2023-04-04T15:40:03.540Z,67.48
2023-04-04T15:42:49.549Z,69.09
2023-04-04T15:45:35.822Z,69.51
2023-04-04T15:48:21.682Z,67.89
2023-04-04T15:51:07.359Z,67.92
2023-04-04T15:53:56.732Z,69.06
2023-04-04T15:56:42.488Z,70.53
2023-04-04T15:59:31.934Z,70.84
2023-04-04T16:02:19.322Z,70.36
2023-04-04T16:05:07.541Z,71.53
2023-04-04T16:07:53.138Z,70.59
2023-04-04T16:10:39.159Z,70.70
2023-04-04T16:13:25.386Z,69.38
2023-04-04T16:16:11.157Z,70.44
2023-04-04T16:18:57.002Z,71.18
2023-04-04T16:21:45.725Z,70.99
2023-04-04T16:24:31.714Z,67.98
2023-04-04T16:27:17.828Z,68.13
2023-04-04T16:30:04.298Z,69.55
2023-04-04T16:32:50.995Z,70.43
2023-04-04T16:35:37.435Z,70.59
2023-04-04T16:38:23.348Z,69.15
2023-04-04T16:41:09.000Z,71.10
2023-04-04T16:43:55.528Z,70.39
2023-04-04T16:46:41.707Z,70.63
2023-04-04T16:49:27.877Z,71.53
2023-04-04T16:52:14.918Z,72.29
2023-04-04T16:55:00.896Z,69.04
2023-04-04T16:57:47.445Z,69.22
2023-04-04T17:00:33.729Z,71.17
2023-04-04T17:03:19.562Z,72.88
2023-04-04T17:06:06.636Z,71.77
2023-04-04T17:08:52.288Z,70.79
2023-04-04T17:11:39.499Z,71.16
2023-04-04T17:14:26.348Z,70.47
2023-04-04T17:17:12.176Z,71.10
2023-04-04T17:19:57.922Z,71.34
2023-04-04T17:22:44.962Z,71.42
2023-04-04T17:25:31.402Z,70.49
2023-04-04T17:28:17.395Z,70.90
2023-04-04T17:31:04.116Z,69.86
2023-04-04T17:33:50.266Z,70.44
2023-04-04T17:36:36.702Z,68.73
2023-04-04T17:39:22.752Z,69.52
2023-04-04T17:42:09.132Z,68.81
2023-04-04T17:44:56.013Z,70.38
2023-04-04T17:47:41.797Z,71.62
2023-04-04T17:50:28.181Z,71.71
2023-04-04T17:53:13.872Z,72.27
2023-04-04T17:55:59.926Z,71.88
2023-04-04T17:58:46.565Z,70.96
2023-04-04T18:01:32.824Z,71.79
2023-04-04T18:04:19.436Z,72.23
2023-04-04T18:07:08.568Z,72.12
2023-04-04T18:09:54.329Z,72.33
2023-04-04T18:12:40.412Z,71.16
2023-04-04T18:15:26.532Z,71.58
2023-04-04T18:18:12.323Z,70.40
2023-04-04T18:20:58.103Z,72.66
2023-04-04T18:23:44.111Z,72.48
2023-04-04T18:26:30.084Z,73.11
2023-04-04T18:29:16.079Z,73.04
2023-04-04T18:32:02.957Z,73.08
2023-04-04T18:34:48.958Z,72.18
2023-04-04T18:37:34.910Z,72.76
2023-04-04T18:40:21.226Z,72.59
2023-04-04T18:43:07.465Z,73.41
2023-04-04T18:45:55.095Z,73.05
2023-04-04T18:48:41.768Z,72.43
2023-04-04T18:51:27.865Z,72.29
2023-04-04T18:54:13.622Z,72.76
2023-04-04T18:57:00.907Z,72.73
2023-04-04T18:59:47.611Z,73.29
2023-04-04T19:02:34.298Z,73.45
2023-04-04T19:05:24.283Z,73.36
2023-04-04T19:08:12.579Z,72.87
2023-04-04T19:10:58.768Z,73.64
2023-04-04T19:13:44.794Z,73.97
2023-04-04T19:16:30.823Z,73.74
2023-04-04T19:19:16.544Z,73.36
2023-04-04T19:22:02.372Z,74.45
2023-04-04T19:24:47.929Z,73.77
2023-04-04T19:27:33.489Z,72.32
2023-04-04T19:30:43.813Z,72.33
2023-04-04T19:33:32.877Z,72.38
2023-04-04T19:36:19.977Z,71.94
2023-04-04T19:39:08.513Z,71.66
2023-04-04T19:41:54.307Z,70.79
2023-04-04T19:44:41.199Z,71.86
2023-04-04T19:47:27.065Z,71.82
2023-04-04T19:50:38.076Z,71.36
2023-04-04T19:53:27.642Z,70.74
2023-04-04T19:56:15.126Z,70.62
2023-04-04T19:59:03.593Z,71.78
2023-04-04T20:02:00.112Z,70.39
2023-04-04T20:04:47.107Z,70.57
2023-04-04T20:07:33.260Z,71.89
2023-04-04T20:10:39.623Z,72.50
2023-04-04T20:13:26.097Z,73.24
2023-04-04T20:16:17.104Z,73.83
2023-04-04T20:19:06.880Z,73.42
2023-04-04T20:21:52.896Z,73.43
2023-04-04T20:24:41.516Z,72.53
2023-04-04T20:27:28.107Z,72.36
2023-04-04T20:30:13.853Z,71.26
2023-04-04T20:32:59.755Z,72.94
2023-04-04T20:35:46.173Z,73.18
2023-04-04T20:38:32.072Z,73.29
2023-04-04T20:41:19.802Z,72.61
2023-04-04T20:44:06.262Z,73.40
2023-04-04T20:46:52.374Z,74.53
2023-04-04T20:49:37.964Z,74.25
2023-04-04T20:52:24.402Z,74.46
2023-04-04T20:55:10.588Z,74.70
2023-04-04T20:58:22.870Z,75.22
2023-04-04T21:01:12.949Z,74.89
2023-04-04T21:03:59.212Z,75.73
2023-04-04T21:06:45.105Z,75.41
2023-04-04T21:09:31.178Z,75.29
2023-04-04T21:12:16.902Z,74.89
2023-04-04T21:15:04.120Z,74.88
2023-04-04T21:17:50.378Z,75.33
2023-04-04T21:20:49.300Z,75.24
2023-04-04T21:23:43.105Z,74.35
2023-04-04T21:26:34.114Z,73.78
2023-04-04T21:29:26.548Z,74.86
2023-04-04T21:32:12.413Z,74.72
2023-04-04T21:34:58.156Z,74.04
2023-04-04T21:37:44.866Z,73.51
2023-04-04T21:40:31.209Z,74.58
2023-04-04T21:43:16.856Z,75.14
2023-04-04T21:46:02.655Z,73.98
2023-04-04T21:48:48.321Z,75.12
2023-04-04T21:51:34.236Z,75.68
2023-04-04T21:54:20.300Z,74.33
2023-04-04T21:57:06.009Z,74.16
2023-04-04T21:59:51.599Z,73.97
2023-04-04T22:02:37.294Z,73.98
2023-04-04T22:05:32.610Z,74.89
2023-04-04T22:08:24.769Z,73.04
2023-04-04T22:11:13.622Z,73.99
2023-04-04T22:14:12.559Z,74.13
2023-04-04T22:17:03.068Z,73.35
2023-04-04T22:19:59.038Z,73.02
2023-04-04T22:22:45.741Z,72.48
2023-04-04T22:25:33.798Z,72.54
2023-04-04T22:28:24.934Z,72.14
2023-04-04T22:31:10.929Z,72.48
2023-04-04T22:33:56.728Z,74.14
2023-04-04T22:36:43.656Z,73.95
2023-04-04T22:39:30.873Z,72.88
2023-04-04T22:42:19.917Z,73.75
2023-04-04T22:45:06.290Z,74.08
2023-04-04T22:47:51.982Z,74.20
2023-04-04T22:50:38.073Z,74.61
2023-04-04T22:53:26.699Z,74.33
2023-04-04T22:56:12.668Z,74.20
2023-04-04T22:58:58.480Z,75.15
2023-04-04T23:01:44.600Z,75.08
2023-04-04T23:04:30.583Z,75.15
2023-04-04T23:07:16.451Z,73.67
2023-04-04T23:10:02.596Z,74.85
2023-04-04T23:12:48.464Z,74.13
2023-04-04T23:15:37.784Z,72.80
2023-04-04T23:18:24.312Z,73.68
2023-04-04T23:21:09.884Z,74.38
2023-04-04T23:23:56.600Z,74.68
2023-04-04T23:26:42.308Z,74.72
2023-04-04T23:29:28.024Z,73.86
2023-04-04T23:32:13.944Z,74.67
2023-04-04T23:35:00.011Z,74.90
2023-04-04T23:37:46.290Z,74.74
2023-04-04T23:40:32.010Z,75.15
2023-04-04T23:43:17.441Z,75.65
2023-04-04T23:46:03.286Z,75.41
2023-04-04T23:48:49.066Z,74.13
2023-04-04T23:51:38.392Z,75.36
2023-04-04T23:54:24.347Z,74.38
2023-04-04T23:57:10.220Z,74.61
2023-04-04T23:59:56.499Z,74.41
